sensor_id;sensor_type;location;lat;lon;timestamp;P1;durP1;ratioP1;P2;durP2;ratioP2
36211;SDS011;22247;48.586;13.492;2023-09-12T00:02:07;19.90;;;12.67;;
36211;SDS011;22247;48.586;13.492;2023-09-12T00:04:33;18.58;;;12.65;;
36211;SDS011;22247;48.586;13.492;2023-09-12T00:07:01;18.10;;;11.80;;
36211;SDS011;22247;48.586;13.492;2023-09-12T00:09:26;14.80;;;10.18;;
36211;SDS011;22247;48.586;13.492;2023-09-12T00:11:51;19.88;;;11.85;;
36211;SDS011;22247;48.586;13.492;2023-09-12T00:16:43;19.23;;;11.30;;
36211;SDS011;22247;48.586;13.492;2023-09-12T00:19:11;20.23;;;13.10;;
36211;SDS011;22247;48.586;13.492;2023-09-12T00:21:38;15.35;;;11.95;;
36211;SDS011;22247;48.586;13.492;2023-09-12T00:24:05;20.13;;;13.02;;
36211;SDS011;22247;48.586;13.492;2023-09-12T00:28:56;17.53;;;12.57;;
36211;SDS011;22247;48.586;13.492;2023-09-12T00:31:23;17.02;;;11.95;;
36211;SDS011;22247;48.586;13.492;2023-09-12T00:33:51;16.85;;;11.65;;
36211;SDS011;22247;48.586;13.492;2023-09-12T00:36:16;18.50;;;12.57;;
36211;SDS011;22247;48.586;13.492;2023-09-12T00:41:05;15.00;;;10.93;;
36211;SDS011;22247;48.586;13.492;2023-09-12T00:43:30;19.35;;;11.80;;
36211;SDS011;22247;48.586;13.492;2023-09-12T00:48:20;17.60;;;11.90;;
36211;SDS011;22247;48.586;13.492;2023-09-12T00:50:46;18.50;;;11.77;;
36211;SDS011;22247;48.586;13.492;2023-09-12T00:53:12;17.48;;;12.05;;
36211;SDS011;22247;48.586;13.492;2023-09-12T00:58:02;16.33;;;11.63;;
36211;SDS011;22247;48.586;13.492;2023-09-12T01:00:27;17.63;;;12.32;;
36211;SDS011;22247;48.586;13.492;2023-09-12T01:05:18;18.92;;;12.20;;
36211;SDS011;22247;48.586;13.492;2023-09-12T01:07:43;22.05;;;13.00;;
36211;SDS011;22247;48.586;13.492;2023-09-12T01:10:09;24.73;;;13.80;;
36211;SDS011;22247;48.586;13.492;2023-09-12T01:12:34;19.73;;;12.30;;
36211;SDS011;22247;48.586;13.492;2023-09-12T01:17:24;22.27;;;13.83;;
36211;SDS011;22247;48.586;13.492;2023-09-12T01:19:49;24.67;;;15.10;;
36211;SDS011;22247;48.586;13.492;2023-09-12T01:29:49;30.55;;;14.18;;
36211;SDS011;22247;48.586;13.492;2023-09-12T01:32:15;24.88;;;14.30;;
36211;SDS011;22247;48.586;13.492;2023-09-12T01:34:42;26.80;;;14.02;;
36211;SDS011;22247;48.586;13.492;2023-09-12T01:39:32;19.63;;;14.33;;
36211;SDS011;22247;48.586;13.492;2023-09-12T01:44:22;18.77;;;13.10;;
36211;SDS011;22247;48.586;13.492;2023-09-12T01:46:48;25.67;;;13.85;;
36211;SDS011;22247;48.586;13.492;2023-09-12T01:49:17;24.15;;;13.85;;
36211;SDS011;22247;48.586;13.492;2023-09-12T01:51:44;21.52;;;15.55;;
36211;SDS011;22247;48.586;13.492;2023-09-12T01:56:34;19.70;;;14.13;;
36211;SDS011;22247;48.586;13.492;2023-09-12T01:59:02;21.05;;;14.50;;
36211;SDS011;22247;48.586;13.492;2023-09-12T02:01:29;21.10;;;14.23;;
36211;SDS011;22247;48.586;13.492;2023-09-12T02:03:54;20.25;;;13.75;;
36211;SDS011;22247;48.586;13.492;2023-09-12T02:08:44;17.97;;;13.43;;
36211;SDS011;22247;48.586;13.492;2023-09-12T02:13:34;20.37;;;13.30;;
36211;SDS011;22247;48.586;13.492;2023-09-12T02:18:24;17.73;;;12.83;;
36211;SDS011;22247;48.586;13.492;2023-09-12T02:20:49;20.52;;;12.85;;
36211;SDS011;22247;48.586;13.492;2023-09-12T02:25:39;21.70;;;13.80;;
36211;SDS011;22247;48.586;13.492;2023-09-12T02:30:29;23.33;;;14.77;;
36211;SDS011;22247;48.586;13.492;2023-09-12T02:32:54;21.92;;;14.65;;
36211;SDS011;22247;48.586;13.492;2023-09-12T02:37:44;21.90;;;14.50;;
36211;SDS011;22247;48.586;13.492;2023-09-12T02:42:35;30.33;;;14.48;;
36211;SDS011;22247;48.586;13.492;2023-09-12T02:47:25;20.83;;;14.77;;
36211;SDS011;22247;48.586;13.492;2023-09-12T02:49:53;21.00;;;14.60;;
36211;SDS011;22247;48.586;13.492;2023-09-12T02:54:45;24.65;;;13.50;;
36211;SDS011;22247;48.586;13.492;2023-09-12T02:57:10;19.48;;;12.43;;
36211;SDS011;22247;48.586;13.492;2023-09-12T02:59:37;20.52;;;14.98;;
36211;SDS011;22247;48.586;13.492;2023-09-12T03:04:27;22.42;;;13.85;;
36211;SDS011;22247;48.586;13.492;2023-09-12T03:06:52;24.05;;;15.10;;
36211;SDS011;22247;48.586;13.492;2023-09-12T03:11:43;22.52;;;14.57;;
36211;SDS011;22247;48.586;13.492;2023-09-12T03:16:35;24.80;;;14.35;;
36211;SDS011;22247;48.586;13.492;2023-09-12T03:19:01;25.08;;;15.55;;
36211;SDS011;22247;48.586;13.492;2023-09-12T03:21:27;25.80;;;16.63;;
36211;SDS011;22247;48.586;13.492;2023-09-12T03:26:17;19.00;;;12.60;;
36211;SDS011;22247;48.586;13.492;2023-09-12T03:28:42;19.60;;;13.35;;
36211;SDS011;22247;48.586;13.492;2023-09-12T03:33:32;21.67;;;13.37;;
36211;SDS011;22247;48.586;13.492;2023-09-12T03:35:57;21.98;;;13.35;;
36211;SDS011;22247;48.586;13.492;2023-09-12T03:40:49;21.55;;;14.05;;
36211;SDS011;22247;48.586;13.492;2023-09-12T03:43:14;18.35;;;12.93;;
36211;SDS011;22247;48.586;13.492;2023-09-12T03:48:04;19.73;;;13.00;;
36211;SDS011;22247;48.586;13.492;2023-09-12T03:50:29;19.77;;;13.52;;
36211;SDS011;22247;48.586;13.492;2023-09-12T03:55:19;21.50;;;11.88;;
36211;SDS011;22247;48.586;13.492;2023-09-12T04:00:09;17.58;;;11.23;;
36211;SDS011;22247;48.586;13.492;2023-09-12T04:02:37;18.25;;;12.43;;
36211;SDS011;22247;48.586;13.492;2023-09-12T04:07:27;21.17;;;12.83;;
36211;SDS011;22247;48.586;13.492;2023-09-12T04:09:55;16.38;;;11.88;;
36211;SDS011;22247;48.586;13.492;2023-09-12T04:14:44;20.65;;;12.32;;
36211;SDS011;22247;48.586;13.492;2023-09-12T04:17:12;15.35;;;10.82;;
36211;SDS011;22247;48.586;13.492;2023-09-12T04:22:04;24.23;;;13.30;;
36211;SDS011;22247;48.586;13.492;2023-09-12T04:24:29;23.05;;;13.45;;
36211;SDS011;22247;48.586;13.492;2023-09-12T04:29:19;22.48;;;14.50;;
36211;SDS011;22247;48.586;13.492;2023-09-12T04:34:09;17.85;;;13.30;;
36211;SDS011;22247;48.586;13.492;2023-09-12T04:36:36;20.13;;;13.10;;
36211;SDS011;22247;48.586;13.492;2023-09-12T04:41:26;19.45;;;12.82;;
36211;SDS011;22247;48.586;13.492;2023-09-12T04:43:53;20.67;;;12.90;;
36211;SDS011;22247;48.586;13.492;2023-09-12T04:48:43;25.15;;;12.57;;
36211;SDS011;22247;48.586;13.492;2023-09-12T04:53:33;20.30;;;13.77;;
36211;SDS011;22247;48.586;13.492;2023-09-12T04:55:59;22.77;;;14.18;;
36211;SDS011;22247;48.586;13.492;2023-09-12T04:58:26;23.13;;;14.35;;
36211;SDS011;22247;48.586;13.492;2023-09-12T05:03:16;20.50;;;14.05;;
36211;SDS011;22247;48.586;13.492;2023-09-12T05:08:06;22.40;;;14.87;;
36211;SDS011;22247;48.586;13.492;2023-09-12T05:12:56;21.58;;;14.02;;
36211;SDS011;22247;48.586;13.492;2023-09-12T05:17:45;20.27;;;13.43;;
36211;SDS011;22247;48.586;13.492;2023-09-12T05:20:13;17.83;;;12.45;;
36211;SDS011;22247;48.586;13.492;2023-09-12T05:22:40;18.95;;;12.82;;
36211;SDS011;22247;48.586;13.492;2023-09-12T05:27:30;21.27;;;12.00;;
36211;SDS011;22247;48.586;13.492;2023-09-12T05:32:20;21.33;;;12.77;;
36211;SDS011;22247;48.586;13.492;2023-09-12T05:37:13;18.55;;;12.20;;
36211;SDS011;22247;48.586;13.492;2023-09-12T05:42:03;20.10;;;12.10;;
36211;SDS011;22247;48.586;13.492;2023-09-12T05:44:30;22.65;;;14.13;;
36211;SDS011;22247;48.586;13.492;2023-09-12T05:46:56;18.50;;;12.25;;
36211;SDS011;22247;48.586;13.492;2023-09-12T05:51:46;17.63;;;13.20;;
36211;SDS011;22247;48.586;13.492;2023-09-12T05:56:37;18.02;;;12.18;;
36211;SDS011;22247;48.586;13.492;2023-09-12T06:01:27;24.90;;;12.23;;
36211;SDS011;22247;48.586;13.492;2023-09-12T06:03:52;19.63;;;13.15;;
36211;SDS011;22247;48.586;13.492;2023-09-12T06:06:20;19.75;;;12.88;;
36211;SDS011;22247;48.586;13.492;2023-09-12T06:08:45;20.42;;;13.48;;
36211;SDS011;22247;48.586;13.492;2023-09-12T06:11:11;18.80;;;13.00;;
36211;SDS011;22247;48.586;13.492;2023-09-12T06:16:01;17.27;;;11.85;;
36211;SDS011;22247;48.586;13.492;2023-09-12T06:20:53;18.33;;;12.65;;
36211;SDS011;22247;48.586;13.492;2023-09-12T06:25:46;27.50;;;12.88;;
36211;SDS011;22247;48.586;13.492;2023-09-12T06:30:35;19.67;;;12.03;;
36211;SDS011;22247;48.586;13.492;2023-09-12T06:33:03;18.95;;;12.15;;
36211;SDS011;22247;48.586;13.492;2023-09-12T06:35:28;23.95;;;13.18;;
36211;SDS011;22247;48.586;13.492;2023-09-12T06:40:20;17.10;;;11.82;;
36211;SDS011;22247;48.586;13.492;2023-09-12T06:45:10;17.00;;;12.17;;
36211;SDS011;22247;48.586;13.492;2023-09-12T06:47:35;19.58;;;12.43;;
36211;SDS011;22247;48.586;13.492;2023-09-12T06:52:27;17.98;;;11.85;;
36211;SDS011;22247;48.586;13.492;2023-09-12T06:54:52;16.08;;;11.35;;
36211;SDS011;22247;48.586;13.492;2023-09-12T06:57:17;16.85;;;11.70;;
36211;SDS011;22247;48.586;13.492;2023-09-12T06:59:42;17.60;;;11.50;;
36211;SDS011;22247;48.586;13.492;2023-09-12T07:02:07;15.43;;;11.20;;
36211;SDS011;22247;48.586;13.492;2023-09-12T07:04:34;15.43;;;11.63;;
36211;SDS011;22247;48.586;13.492;2023-09-12T07:06:59;17.15;;;12.65;;
36211;SDS011;22247;48.586;13.492;2023-09-12T07:09:24;17.15;;;12.43;;
36211;SDS011;22247;48.586;13.492;2023-09-12T07:11:51;18.98;;;12.48;;
36211;SDS011;22247;48.586;13.492;2023-09-12T07:14:20;17.75;;;12.23;;
36211;SDS011;22247;48.586;13.492;2023-09-12T07:16:46;19.45;;;12.00;;
36211;SDS011;22247;48.586;13.492;2023-09-12T07:19:12;20.40;;;12.57;;
36211;SDS011;22247;48.586;13.492;2023-09-12T07:21:37;14.10;;;11.45;;
36211;SDS011;22247;48.586;13.492;2023-09-12T07:24:02;17.85;;;12.18;;
36211;SDS011;22247;48.586;13.492;2023-09-12T07:26:29;17.08;;;12.05;;
36211;SDS011;22247;48.586;13.492;2023-09-12T07:28:54;16.48;;;12.73;;
36211;SDS011;22247;48.586;13.492;2023-09-12T07:31:19;20.30;;;12.70;;
36211;SDS011;22247;48.586;13.492;2023-09-12T07:33:44;17.00;;;11.73;;
36211;SDS011;22247;48.586;13.492;2023-09-12T07:36:12;18.27;;;11.82;;
36211;SDS011;22247;48.586;13.492;2023-09-12T07:38:37;16.10;;;11.48;;
36211;SDS011;22247;48.586;13.492;2023-09-12T07:41:04;20.48;;;10.98;;
36211;SDS011;22247;48.586;13.492;2023-09-12T07:43:32;18.10;;;12.00;;
36211;SDS011;22247;48.586;13.492;2023-09-12T07:45:57;14.55;;;10.35;;
36211;SDS011;22247;48.586;13.492;2023-09-12T07:48:22;17.52;;;11.23;;
36211;SDS011;22247;48.586;13.492;2023-09-12T07:50:50;16.85;;;11.95;;
36211;SDS011;22247;48.586;13.492;2023-09-12T07:53:15;15.90;;;11.30;;
36211;SDS011;22247;48.586;13.492;2023-09-12T07:55:43;17.05;;;11.30;;
36211;SDS011;22247;48.586;13.492;2023-09-12T07:58:11;18.45;;;11.18;;
36211;SDS011;22247;48.586;13.492;2023-09-12T08:00:36;14.55;;;11.82;;
36211;SDS011;22247;48.586;13.492;2023-09-12T08:03:02;13.98;;;10.43;;
36211;SDS011;22247;48.586;13.492;2023-09-12T08:05:27;15.05;;;10.98;;
36211;SDS011;22247;48.586;13.492;2023-09-12T08:07:52;14.85;;;11.50;;
36211;SDS011;22247;48.586;13.492;2023-09-12T08:10:19;17.05;;;12.40;;
36211;SDS011;22247;48.586;13.492;2023-09-12T08:12:44;14.77;;;11.25;;
36211;SDS011;22247;48.586;13.492;2023-09-12T08:15:11;14.35;;;10.90;;
36211;SDS011;22247;48.586;13.492;2023-09-12T08:17:37;15.40;;;11.38;;
36211;SDS011;22247;48.586;13.492;2023-09-12T08:20:07;27.90;;;12.10;;
36211;SDS011;22247;48.586;13.492;2023-09-12T08:22:33;19.67;;;13.77;;
36211;SDS011;22247;48.586;13.492;2023-09-12T08:24:58;18.67;;;13.43;;
36211;SDS011;22247;48.586;13.492;2023-09-12T08:27:26;18.75;;;13.45;;
36211;SDS011;22247;48.586;13.492;2023-09-12T08:29:54;19.77;;;13.23;;
36211;SDS011;22247;48.586;13.492;2023-09-12T08:32:19;17.42;;;13.07;;
36211;SDS011;22247;48.586;13.492;2023-09-12T08:34:45;21.27;;;13.07;;
36211;SDS011;22247;48.586;13.492;2023-09-12T08:37:12;19.23;;;13.43;;
36211;SDS011;22247;48.586;13.492;2023-09-12T08:39:41;22.55;;;13.80;;
36211;SDS011;22247;48.586;13.492;2023-09-12T08:42:11;20.38;;;12.93;;
36211;SDS011;22247;48.586;13.492;2023-09-12T08:44:36;17.45;;;12.98;;
36211;SDS011;22247;48.586;13.492;2023-09-12T08:47:01;15.90;;;11.10;;
36211;SDS011;22247;48.586;13.492;2023-09-12T08:49:29;14.38;;;10.40;;
36211;SDS011;22247;48.586;13.492;2023-09-12T08:51:55;15.23;;;11.20;;
36211;SDS011;22247;48.586;13.492;2023-09-12T08:54:20;16.58;;;11.80;;
36211;SDS011;22247;48.586;13.492;2023-09-12T08:56:47;13.60;;;10.75;;
36211;SDS011;22247;48.586;13.492;2023-09-12T08:59:12;14.55;;;10.90;;
36211;SDS011;22247;48.586;13.492;2023-09-12T09:01:37;13.98;;;10.38;;
36211;SDS011;22247;48.586;13.492;2023-09-12T09:04:03;17.67;;;10.02;;
36211;SDS011;22247;48.586;13.492;2023-09-12T09:06:32;12.68;;;9.80;;
36211;SDS011;22247;48.586;13.492;2023-09-12T09:09:03;15.32;;;9.90;;
36211;SDS011;22247;48.586;13.492;2023-09-12T09:11:29;11.98;;;9.43;;
36211;SDS011;22247;48.586;13.492;2023-09-12T09:13:56;22.15;;;10.68;;
36211;SDS011;22247;48.586;13.492;2023-09-12T09:16:24;13.32;;;9.65;;
36211;SDS011;22247;48.586;13.492;2023-09-12T09:18:59;16.55;;;9.43;;
36211;SDS011;22247;48.586;13.492;2023-09-12T09:21:31;12.50;;;9.43;;
36211;SDS011;22247;48.586;13.492;2023-09-12T09:24:01;17.65;;;9.60;;
36211;SDS011;22247;48.586;13.492;2023-09-12T09:26:43;15.20;;;9.77;;
36211;SDS011;22247;48.586;13.492;2023-09-12T09:29:10;12.57;;;9.85;;
36211;SDS011;22247;48.586;13.492;2023-09-12T09:31:35;10.52;;;9.00;;
36211;SDS011;22247;48.586;13.492;2023-09-12T09:34:02;12.60;;;9.20;;
36211;SDS011;22247;48.586;13.492;2023-09-12T09:36:30;13.23;;;8.90;;
36211;SDS011;22247;48.586;13.492;2023-09-12T09:38:57;12.23;;;9.45;;
36211;SDS011;22247;48.586;13.492;2023-09-12T09:41:25;10.07;;;8.73;;
36211;SDS011;22247;48.586;13.492;2023-09-12T09:43:53;13.25;;;8.85;;
36211;SDS011;22247;48.586;13.492;2023-09-12T09:46:21;14.15;;;8.85;;
36211;SDS011;22247;48.586;13.492;2023-09-12T09:48:49;13.18;;;8.95;;
36211;SDS011;22247;48.586;13.492;2023-09-12T09:51:14;10.38;;;8.43;;
36211;SDS011;22247;48.586;13.492;2023-09-12T09:53:42;9.88;;;8.55;;
36211;SDS011;22247;48.586;13.492;2023-09-12T09:56:08;9.35;;;8.07;;
36211;SDS011;22247;48.586;13.492;2023-09-12T09:58:34;13.85;;;9.02;;
36211;SDS011;22247;48.586;13.492;2023-09-12T10:01:00;19.58;;;9.45;;
36211;SDS011;22247;48.586;13.492;2023-09-12T10:03:30;16.17;;;8.80;;
36211;SDS011;22247;48.586;13.492;2023-09-12T10:05:57;11.38;;;8.35;;
36211;SDS011;22247;48.586;13.492;2023-09-12T10:08:27;11.50;;;8.45;;
36211;SDS011;22247;48.586;13.492;2023-09-12T10:10:52;12.75;;;8.35;;
36211;SDS011;22247;48.586;13.492;2023-09-12T10:13:17;12.18;;;8.65;;
36211;SDS011;22247;48.586;13.492;2023-09-12T10:15:43;15.48;;;9.13;;
36211;SDS011;22247;48.586;13.492;2023-09-12T10:18:18;11.55;;;8.60;;
36211;SDS011;22247;48.586;13.492;2023-09-12T10:20:50;12.05;;;8.60;;
36211;SDS011;22247;48.586;13.492;2023-09-12T10:23:19;12.07;;;8.73;;
36211;SDS011;22247;48.586;13.492;2023-09-12T10:25:45;13.80;;;8.38;;
36211;SDS011;22247;48.586;13.492;2023-09-12T10:28:10;14.23;;;8.57;;
36211;SDS011;22247;48.586;13.492;2023-09-12T10:30:35;14.13;;;8.40;;
36211;SDS011;22247;48.586;13.492;2023-09-12T10:33:03;10.13;;;8.13;;
36211;SDS011;22247;48.586;13.492;2023-09-12T10:35:31;13.95;;;8.40;;
36211;SDS011;22247;48.586;13.492;2023-09-12T10:37:59;11.00;;;9.10;;
36211;SDS011;22247;48.586;13.492;2023-09-12T10:40:31;15.95;;;8.32;;
36211;SDS011;22247;48.586;13.492;2023-09-12T10:42:56;10.73;;;8.32;;
36211;SDS011;22247;48.586;13.492;2023-09-12T10:45:22;11.70;;;9.18;;
36211;SDS011;22247;48.586;13.492;2023-09-12T10:47:47;10.98;;;7.95;;
36211;SDS011;22247;48.586;13.492;2023-09-12T10:50:15;9.85;;;7.72;;
36211;SDS011;22247;48.586;13.492;2023-09-12T10:52:40;13.30;;;9.02;;
36211;SDS011;22247;48.586;13.492;2023-09-12T10:55:07;11.23;;;7.97;;
36211;SDS011;22247;48.586;13.492;2023-09-12T10:57:35;11.75;;;7.97;;
36211;SDS011;22247;48.586;13.492;2023-09-12T11:00:18;11.02;;;8.50;;
36211;SDS011;22247;48.586;13.492;2023-09-12T11:02:43;9.25;;;7.72;;
36211;SDS011;22247;48.586;13.492;2023-09-12T11:07:58;10.45;;;7.90;;
36211;SDS011;22247;48.586;13.492;2023-09-12T11:10:26;15.75;;;8.25;;
36211;SDS011;22247;48.586;13.492;2023-09-12T11:12:53;10.98;;;8.27;;
36211;SDS011;22247;48.586;13.492;2023-09-12T11:15:19;14.27;;;8.10;;
36211;SDS011;22247;48.586;13.492;2023-09-12T11:17:45;25.48;;;8.52;;
36211;SDS011;22247;48.586;13.492;2023-09-12T11:20:13;14.88;;;8.73;;
36211;SDS011;22247;48.586;13.492;2023-09-12T11:22:39;10.32;;;8.50;;
36211;SDS011;22247;48.586;13.492;2023-09-12T11:25:21;10.70;;;8.65;;
36211;SDS011;22247;48.586;13.492;2023-09-12T11:30:18;15.00;;;9.18;;
36211;SDS011;22247;48.586;13.492;2023-09-12T11:32:44;11.02;;;8.98;;
36211;SDS011;22247;48.586;13.492;2023-09-12T11:35:10;15.02;;;8.80;;
36211;SDS011;22247;48.586;13.492;2023-09-12T11:37:35;11.85;;;8.40;;
36211;SDS011;22247;48.586;13.492;2023-09-12T11:40:15;15.98;;;8.82;;
36211;SDS011;22247;48.586;13.492;2023-09-12T11:42:41;13.38;;;9.32;;
36211;SDS011;22247;48.586;13.492;2023-09-12T11:45:09;11.48;;;8.45;;
36211;SDS011;22247;48.586;13.492;2023-09-12T11:47:39;12.88;;;8.50;;
36211;SDS011;22247;48.586;13.492;2023-09-12T11:50:04;13.05;;;8.48;;
36211;SDS011;22247;48.586;13.492;2023-09-12T11:52:30;12.85;;;8.18;;
36211;SDS011;22247;48.586;13.492;2023-09-12T11:54:55;10.65;;;7.93;;
36211;SDS011;22247;48.586;13.492;2023-09-12T11:57:20;15.15;;;9.50;;
36211;SDS011;22247;48.586;13.492;2023-09-12T11:59:46;11.13;;;8.68;;
36211;SDS011;22247;48.586;13.492;2023-09-12T12:02:12;18.88;;;10.27;;
36211;SDS011;22247;48.586;13.492;2023-09-12T12:04:38;12.20;;;8.05;;
36211;SDS011;22247;48.586;13.492;2023-09-12T12:07:06;9.60;;;8.32;;
36211;SDS011;22247;48.586;13.492;2023-09-12T12:10:33;13.80;;;9.40;;
36211;SDS011;22247;48.586;13.492;2023-09-12T12:12:58;10.40;;;9.10;;
36211;SDS011;22247;48.586;13.492;2023-09-12T12:15:24;9.60;;;8.60;;
36211;SDS011;22247;48.586;13.492;2023-09-12T12:17:53;16.75;;;9.00;;
36211;SDS011;22247;48.586;13.492;2023-09-12T12:20:18;10.25;;;8.20;;
36211;SDS011;22247;48.586;13.492;2023-09-12T12:22:44;17.00;;;9.00;;
36211;SDS011;22247;48.586;13.492;2023-09-12T12:25:09;10.77;;;8.18;;
36211;SDS011;22247;48.586;13.492;2023-09-12T12:27:41;16.55;;;8.73;;
36211;SDS011;22247;48.586;13.492;2023-09-12T12:30:10;19.77;;;9.20;;
36211;SDS011;22247;48.586;13.492;2023-09-12T12:32:42;10.70;;;8.65;;
36211;SDS011;22247;48.586;13.492;2023-09-12T12:35:08;9.20;;;8.05;;
36211;SDS011;22247;48.586;13.492;2023-09-12T12:37:33;11.63;;;8.13;;
36211;SDS011;22247;48.586;13.492;2023-09-12T12:40:01;12.05;;;8.60;;
36211;SDS011;22247;48.586;13.492;2023-09-12T12:42:32;9.23;;;8.30;;
36211;SDS011;22247;48.586;13.492;2023-09-12T12:44:58;15.82;;;7.57;;
36211;SDS011;22247;48.586;13.492;2023-09-12T12:47:23;17.83;;;8.07;;
36211;SDS011;22247;48.586;13.492;2023-09-12T12:49:50;11.68;;;8.48;;
36211;SDS011;22247;48.586;13.492;2023-09-12T12:52:16;8.52;;;7.22;;
36211;SDS011;22247;48.586;13.492;2023-09-12T12:54:41;10.50;;;7.30;;
36211;SDS011;22247;48.586;13.492;2023-09-12T12:57:10;9.95;;;7.57;;
36211;SDS011;22247;48.586;13.492;2023-09-12T12:59:38;13.77;;;8.55;;
36211;SDS011;22247;48.586;13.492;2023-09-12T13:02:09;10.73;;;7.68;;
36211;SDS011;22247;48.586;13.492;2023-09-12T13:04:37;7.97;;;7.18;;
36211;SDS011;22247;48.586;13.492;2023-09-12T13:07:02;11.45;;;7.65;;
36211;SDS011;22247;48.586;13.492;2023-09-12T13:09:27;8.30;;;7.00;;
36211;SDS011;22247;48.586;13.492;2023-09-12T13:11:52;12.05;;;7.22;;
36211;SDS011;22247;48.586;13.492;2023-09-12T13:14:17;9.20;;;6.88;;
36211;SDS011;22247;48.586;13.492;2023-09-12T13:16:43;8.02;;;7.18;;
36211;SDS011;22247;48.586;13.492;2023-09-12T13:19:09;10.68;;;7.55;;
36211;SDS011;22247;48.586;13.492;2023-09-12T13:21:36;11.55;;;7.20;;
36211;SDS011;22247;48.586;13.492;2023-09-12T13:24:02;12.18;;;6.38;;
36211;SDS011;22247;48.586;13.492;2023-09-12T13:26:29;9.77;;;7.07;;
36211;SDS011;22247;48.586;13.492;2023-09-12T13:28:55;9.02;;;6.78;;
36211;SDS011;22247;48.586;13.492;2023-09-12T13:31:25;8.35;;;6.70;;
36211;SDS011;22247;48.586;13.492;2023-09-12T13:33:50;10.00;;;7.22;;
36211;SDS011;22247;48.586;13.492;2023-09-12T13:36:15;9.60;;;7.10;;
36211;SDS011;22247;48.586;13.492;2023-09-12T13:38:40;11.88;;;7.30;;
36211;SDS011;22247;48.586;13.492;2023-09-12T13:41:05;9.45;;;7.07;;
36211;SDS011;22247;48.586;13.492;2023-09-12T13:43:32;9.73;;;7.30;;
36211;SDS011;22247;48.586;13.492;2023-09-12T13:45:57;10.60;;;7.50;;
36211;SDS011;22247;48.586;13.492;2023-09-12T13:48:27;10.27;;;7.18;;
36211;SDS011;22247;48.586;13.492;2023-09-12T13:50:52;9.88;;;6.82;;
36211;SDS011;22247;48.586;13.492;2023-09-12T13:53:17;10.73;;;6.85;;
36211;SDS011;22247;48.586;13.492;2023-09-12T13:55:42;12.57;;;7.07;;
36211;SDS011;22247;48.586;13.492;2023-09-12T13:58:07;9.68;;;7.05;;
36211;SDS011;22247;48.586;13.492;2023-09-12T14:00:32;8.95;;;6.53;;
36211;SDS011;22247;48.586;13.492;2023-09-12T14:03:00;13.70;;;7.72;;
36211;SDS011;22247;48.586;13.492;2023-09-12T14:05:25;12.30;;;7.35;;
36211;SDS011;22247;48.586;13.492;2023-09-12T14:07:50;8.00;;;6.60;;
36211;SDS011;22247;48.586;13.492;2023-09-12T14:10:18;8.77;;;6.53;;
36211;SDS011;22247;48.586;13.492;2023-09-12T14:12:43;11.00;;;7.15;;
36211;SDS011;22247;48.586;13.492;2023-09-12T14:15:08;10.10;;;7.55;;
36211;SDS011;22247;48.586;13.492;2023-09-12T14:17:33;9.90;;;7.57;;
36211;SDS011;22247;48.586;13.492;2023-09-12T14:20:01;12.48;;;7.28;;
36211;SDS011;22247;48.586;13.492;2023-09-12T14:22:26;13.23;;;8.75;;
36211;SDS011;22247;48.586;13.492;2023-09-12T14:24:51;10.82;;;7.82;;
36211;SDS011;22247;48.586;13.492;2023-09-12T14:27:16;18.48;;;8.23;;
36211;SDS011;22247;48.586;13.492;2023-09-12T14:29:41;10.82;;;8.50;;
36211;SDS011;22247;48.586;13.492;2023-09-12T14:32:09;10.88;;;8.15;;
36211;SDS011;22247;48.586;13.492;2023-09-12T14:34:34;18.20;;;8.57;;
36211;SDS011;22247;48.586;13.492;2023-09-12T14:36:59;12.98;;;8.25;;
36211;SDS011;22247;48.586;13.492;2023-09-12T14:39:27;15.93;;;8.85;;
36211;SDS011;22247;48.586;13.492;2023-09-12T14:41:52;20.67;;;8.68;;
36211;SDS011;22247;48.586;13.492;2023-09-12T14:44:18;22.13;;;8.88;;
36211;SDS011;22247;48.586;13.492;2023-09-12T14:46:46;11.70;;;9.15;;
36211;SDS011;22247;48.586;13.492;2023-09-12T14:49:11;18.83;;;9.40;;
36211;SDS011;22247;48.586;13.492;2023-09-12T14:51:36;21.50;;;10.15;;
36211;SDS011;22247;48.586;13.492;2023-09-12T14:54:04;20.98;;;11.18;;
36211;SDS011;22247;48.586;13.492;2023-09-12T14:56:34;14.20;;;9.60;;
36211;SDS011;22247;48.586;13.492;2023-09-12T14:59:03;13.85;;;8.95;;
36211;SDS011;22247;48.586;13.492;2023-09-12T15:01:28;11.68;;;9.05;;
36211;SDS011;22247;48.586;13.492;2023-09-12T15:03:54;12.98;;;9.02;;
36211;SDS011;22247;48.586;13.492;2023-09-12T15:06:19;14.52;;;8.68;;
36211;SDS011;22247;48.586;13.492;2023-09-12T15:08:47;12.88;;;9.02;;
36211;SDS011;22247;48.586;13.492;2023-09-12T15:11:12;10.38;;;7.75;;
36211;SDS011;22247;48.586;13.492;2023-09-12T15:13:39;17.02;;;8.50;;
36211;SDS011;22247;48.586;13.492;2023-09-12T15:16:07;10.45;;;8.23;;
36211;SDS011;22247;48.586;13.492;2023-09-12T15:18:32;11.73;;;8.10;;
36211;SDS011;22247;48.586;13.492;2023-09-12T15:20:59;11.98;;;8.50;;
36211;SDS011;22247;48.586;13.492;2023-09-12T15:23:25;11.88;;;8.18;;
36211;SDS011;22247;48.586;13.492;2023-09-12T15:25:52;10.35;;;8.57;;
36211;SDS011;22247;48.586;13.492;2023-09-12T15:28:17;10.65;;;7.90;;
36211;SDS011;22247;48.586;13.492;2023-09-12T15:30:42;15.27;;;8.38;;
36211;SDS011;22247;48.586;13.492;2023-09-12T15:33:08;13.27;;;8.63;;
36211;SDS011;22247;48.586;13.492;2023-09-12T15:35:33;9.77;;;8.10;;
36211;SDS011;22247;48.586;13.492;2023-09-12T15:37:58;10.23;;;8.23;;
36211;SDS011;22247;48.586;13.492;2023-09-12T15:40:23;15.48;;;8.90;;
36211;SDS011;22247;48.586;13.492;2023-09-12T15:42:50;11.13;;;7.75;;
36211;SDS011;22247;48.586;13.492;2023-09-12T15:45:20;13.80;;;8.18;;
36211;SDS011;22247;48.586;13.492;2023-09-12T15:47:45;13.50;;;8.05;;
36211;SDS011;22247;48.586;13.492;2023-09-12T15:50:13;13.23;;;8.05;;
36211;SDS011;22247;48.586;13.492;2023-09-12T15:52:38;12.48;;;7.47;;
36211;SDS011;22247;48.586;13.492;2023-09-12T15:55:08;11.20;;;7.45;;
36211;SDS011;22247;48.586;13.492;2023-09-12T15:57:33;13.50;;;7.82;;
36211;SDS011;22247;48.586;13.492;2023-09-12T16:00:03;11.02;;;7.35;;
36211;SDS011;22247;48.586;13.492;2023-09-12T16:02:30;11.57;;;7.47;;
36211;SDS011;22247;48.586;13.492;2023-09-12T16:04:55;11.85;;;8.05;;
36211;SDS011;22247;48.586;13.492;2023-09-12T16:07:23;11.88;;;8.02;;
36211;SDS011;22247;48.586;13.492;2023-09-12T16:09:48;9.30;;;7.85;;
36211;SDS011;22247;48.586;13.492;2023-09-12T16:12:13;11.60;;;7.85;;
36211;SDS011;22247;48.586;13.492;2023-09-12T16:14:38;10.20;;;8.18;;
36211;SDS011;22247;48.586;13.492;2023-09-12T16:17:03;8.65;;;7.43;;
36211;SDS011;22247;48.586;13.492;2023-09-12T16:19:30;8.85;;;7.95;;
36211;SDS011;22247;48.586;13.492;2023-09-12T16:21:55;12.18;;;7.70;;
36211;SDS011;22247;48.586;13.492;2023-09-12T16:24:25;9.60;;;8.00;;
36211;SDS011;22247;48.586;13.492;2023-09-12T16:26:50;10.85;;;7.82;;
36211;SDS011;22247;48.586;13.492;2023-09-12T16:29:16;9.57;;;7.95;;
36211;SDS011;22247;48.586;13.492;2023-09-12T16:31:42;10.82;;;8.32;;
36211;SDS011;22247;48.586;13.492;2023-09-12T16:34:07;12.20;;;8.20;;
36211;SDS011;22247;48.586;13.492;2023-09-12T16:36:34;10.73;;;8.55;;